sensor_id;sensor_type;location;lat;lon;timestamp;P1;durP1;ratioP1;P2;durP2;ratioP2
77453;SDS011;66538;53.150;18.160;2023-10-08T00:00:33;7.20;;;1.90;;
77453;SDS011;66538;53.150;18.160;2023-10-08T00:03:40;10.50;;;2.50;;
77453;SDS011;66538;53.150;18.160;2023-10-08T00:06:07;7.80;;;1.90;;
77453;SDS011;66538;53.150;18.160;2023-10-08T00:08:39;8.80;;;2.60;;
77453;SDS011;66538;53.150;18.160;2023-10-08T00:11:05;11.20;;;1.80;;
77453;SDS011;66538;53.150;18.160;2023-10-08T00:13:32;6.40;;;1.60;;
77453;SDS011;66538;53.150;18.160;2023-10-08T00:16:06;7.00;;;1.70;;
77453;SDS011;66538;53.150;18.160;2023-10-08T00:18:37;5.40;;;1.40;;
77453;SDS011;66538;53.150;18.160;2023-10-08T00:21:08;7.90;;;2.10;;
77453;SDS011;66538;53.150;18.160;2023-10-08T00:23:37;5.30;;;1.80;;
77453;SDS011;66538;53.150;18.160;2023-10-08T00:26:08;9.40;;;2.40;;
77453;SDS011;66538;53.150;18.160;2023-10-08T00:28:35;9.70;;;2.00;;
77453;SDS011;66538;53.150;18.160;2023-10-08T00:31:02;5.60;;;1.70;;
77453;SDS011;66538;53.150;18.160;2023-10-08T00:33:38;7.00;;;1.30;;
77453;SDS011;66538;53.150;18.160;2023-10-08T00:36:06;8.00;;;2.10;;
77453;SDS011;66538;53.150;18.160;2023-10-08T00:38:47;7.00;;;1.50;;
77453;SDS011;66538;53.150;18.160;2023-10-08T00:41:17;6.00;;;1.50;;
77453;SDS011;66538;53.150;18.160;2023-10-08T00:43:54;9.40;;;1.80;;
77453;SDS011;66538;53.150;18.160;2023-10-08T00:46:26;5.90;;;1.80;;
77453;SDS011;66538;53.150;18.160;2023-10-08T00:52:33;5.00;;;1.20;;
77453;SDS011;66538;53.150;18.160;2023-10-08T00:55:08;6.30;;;1.40;;
77453;SDS011;66538;53.150;18.160;2023-10-08T00:57:40;4.90;;;1.30;;
77453;SDS011;66538;53.150;18.160;2023-10-08T01:00:10;6.40;;;2.00;;
77453;SDS011;66538;53.150;18.160;2023-10-08T01:02:47;6.90;;;1.70;;
77453;SDS011;66538;53.150;18.160;2023-10-08T01:05:27;5.80;;;1.20;;
77453;SDS011;66538;53.150;18.160;2023-10-08T01:08:13;7.70;;;1.50;;
77453;SDS011;66538;53.150;18.160;2023-10-08T01:10:48;6.20;;;1.40;;
77453;SDS011;66538;53.150;18.160;2023-10-08T01:13:24;4.70;;;1.40;;
77453;SDS011;66538;53.150;18.160;2023-10-08T01:15:53;6.00;;;1.50;;
77453;SDS011;66538;53.150;18.160;2023-10-08T01:18:21;4.30;;;1.20;;
77453;SDS011;66538;53.150;18.160;2023-10-08T01:20:57;4.60;;;1.50;;
77453;SDS011;66538;53.150;18.160;2023-10-08T01:23:31;4.20;;;1.20;;
77453;SDS011;66538;53.150;18.160;2023-10-08T01:25:58;6.00;;;1.30;;
77453;SDS011;66538;53.150;18.160;2023-10-08T01:28:37;7.70;;;2.00;;
77453;SDS011;66538;53.150;18.160;2023-10-08T01:31:03;5.30;;;1.10;;
77453;SDS011;66538;53.150;18.160;2023-10-08T01:33:30;4.50;;;1.10;;
77453;SDS011;66538;53.150;18.160;2023-10-08T01:36:13;2.90;;;0.80;;
77453;SDS011;66538;53.150;18.160;2023-10-08T01:38:40;4.70;;;1.20;;
77453;SDS011;66538;53.150;18.160;2023-10-08T01:41:08;3.40;;;1.00;;
77453;SDS011;66538;53.150;18.160;2023-10-08T01:43:48;4.20;;;1.00;;
77453;SDS011;66538;53.150;18.160;2023-10-08T01:46:16;4.90;;;1.20;;
77453;SDS011;66538;53.150;18.160;2023-10-08T01:48:43;5.20;;;1.30;;
77453;SDS011;66538;53.150;18.160;2023-10-08T01:51:11;3.40;;;0.80;;
77453;SDS011;66538;53.150;18.160;2023-10-08T01:53:38;3.90;;;1.00;;
77453;SDS011;66538;53.150;18.160;2023-10-08T01:56:05;4.60;;;1.50;;
77453;SDS011;66538;53.150;18.160;2023-10-08T01:58:32;2.70;;;0.70;;
77453;SDS011;66538;53.150;18.160;2023-10-08T02:01:01;2.00;;;0.80;;
77453;SDS011;66538;53.150;18.160;2023-10-08T02:03:32;3.30;;;1.00;;
77453;SDS011;66538;53.150;18.160;2023-10-08T02:05:58;3.60;;;0.80;;
77453;SDS011;66538;53.150;18.160;2023-10-08T02:08:26;3.80;;;1.00;;
77453;SDS011;66538;53.150;18.160;2023-10-08T02:10:52;1.90;;;0.70;;
77453;SDS011;66538;53.150;18.160;2023-10-08T02:13:19;2.60;;;0.90;;
77453;SDS011;66538;53.150;18.160;2023-10-08T02:15:49;1.60;;;0.60;;
77453;SDS011;66538;53.150;18.160;2023-10-08T02:18:20;2.10;;;0.70;;
77453;SDS011;66538;53.150;18.160;2023-10-08T02:20:49;2.00;;;0.50;;
77453;SDS011;66538;53.150;18.160;2023-10-08T02:23:16;0.90;;;0.40;;
77453;SDS011;66538;53.150;18.160;2023-10-08T02:25:44;2.60;;;0.80;;
77453;SDS011;66538;53.150;18.160;2023-10-08T02:28:11;1.80;;;0.60;;
77453;SDS011;66538;53.150;18.160;2023-10-08T02:30:42;2.10;;;0.70;;
77453;SDS011;66538;53.150;18.160;2023-10-08T02:33:09;3.30;;;0.60;;
77453;SDS011;66538;53.150;18.160;2023-10-08T02:35:42;2.80;;;0.60;;
77453;SDS011;66538;53.150;18.160;2023-10-08T02:38:14;3.40;;;0.50;;
77453;SDS011;66538;53.150;18.160;2023-10-08T02:40:43;2.00;;;0.70;;
77453;SDS011;66538;53.150;18.160;2023-10-08T02:43:16;2.40;;;0.80;;
77453;SDS011;66538;53.150;18.160;2023-10-08T02:45:44;1.90;;;0.60;;
77453;SDS011;66538;53.150;18.160;2023-10-08T02:48:15;2.40;;;0.70;;
77453;SDS011;66538;53.150;18.160;2023-10-08T02:50:42;2.90;;;0.70;;
77453;SDS011;66538;53.150;18.160;2023-10-08T02:53:11;1.50;;;0.50;;
77453;SDS011;66538;53.150;18.160;2023-10-08T02:55:38;2.30;;;0.40;;
77453;SDS011;66538;53.150;18.160;2023-10-08T02:58:10;3.30;;;0.60;;
77453;SDS011;66538;53.150;18.160;2023-10-08T03:00:47;2.10;;;0.50;;
77453;SDS011;66538;53.150;18.160;2023-10-08T03:03:15;1.70;;;0.60;;
77453;SDS011;66538;53.150;18.160;2023-10-08T03:05:45;1.90;;;0.50;;
77453;SDS011;66538;53.150;18.160;2023-10-08T03:08:14;5.60;;;0.70;;
77453;SDS011;66538;53.150;18.160;2023-10-08T03:10:47;1.50;;;0.50;;
77453;SDS011;66538;53.150;18.160;2023-10-08T03:13:15;1.40;;;0.40;;
77453;SDS011;66538;53.150;18.160;2023-10-08T03:15:43;1.70;;;0.40;;
77453;SDS011;66538;53.150;18.160;2023-10-08T03:18:24;1.20;;;0.30;;
77453;SDS011;66538;53.150;18.160;2023-10-08T03:20:51;2.10;;;0.50;;
77453;SDS011;66538;53.150;18.160;2023-10-08T03:23:18;2.10;;;0.40;;
77453;SDS011;66538;53.150;18.160;2023-10-08T03:26:01;1.70;;;0.50;;
77453;SDS011;66538;53.150;18.160;2023-10-08T03:28:38;1.50;;;0.40;;
77453;SDS011;66538;53.150;18.160;2023-10-08T03:31:07;3.20;;;0.50;;
77453;SDS011;66538;53.150;18.160;2023-10-08T03:33:44;1.30;;;0.40;;
77453;SDS011;66538;53.150;18.160;2023-10-08T03:36:15;1.30;;;0.40;;
77453;SDS011;66538;53.150;18.160;2023-10-08T03:38:56;2.40;;;0.40;;
77453;SDS011;66538;53.150;18.160;2023-10-08T03:41:24;1.10;;;0.40;;
77453;SDS011;66538;53.150;18.160;2023-10-08T03:43:57;2.60;;;0.50;;
77453;SDS011;66538;53.150;18.160;2023-10-08T03:49:05;1.20;;;0.30;;
77453;SDS011;66538;53.150;18.160;2023-10-08T03:51:47;1.90;;;0.50;;
77453;SDS011;66538;53.150;18.160;2023-10-08T03:54:18;1.90;;;0.60;;
77453;SDS011;66538;53.150;18.160;2023-10-08T03:56:46;2.50;;;0.50;;
77453;SDS011;66538;53.150;18.160;2023-10-08T03:59:13;1.50;;;0.40;;
77453;SDS011;66538;53.150;18.160;2023-10-08T04:01:59;2.90;;;0.60;;
77453;SDS011;66538;53.150;18.160;2023-10-08T04:04:40;1.70;;;0.50;;
77453;SDS011;66538;53.150;18.160;2023-10-08T04:07:18;1.40;;;0.30;;
77453;SDS011;66538;53.150;18.160;2023-10-08T04:09:55;2.40;;;0.40;;
77453;SDS011;66538;53.150;18.160;2023-10-08T04:12:36;1.30;;;0.40;;
77453;SDS011;66538;53.150;18.160;2023-10-08T04:15:10;1.80;;;0.40;;
77453;SDS011;66538;53.150;18.160;2023-10-08T04:17:39;1.80;;;0.60;;
77453;SDS011;66538;53.150;18.160;2023-10-08T04:20:12;0.70;;;0.20;;
77453;SDS011;66538;53.150;18.160;2023-10-08T04:22:59;1.70;;;0.50;;
77453;SDS011;66538;53.150;18.160;2023-10-08T04:25:27;1.30;;;0.40;;
77453;SDS011;66538;53.150;18.160;2023-10-08T04:27:55;1.60;;;0.50;;
77453;SDS011;66538;53.150;18.160;2023-10-08T04:30:25;1.10;;;0.40;;
77453;SDS011;66538;53.150;18.160;2023-10-08T04:33:02;1.30;;;0.40;;
77453;SDS011;66538;53.150;18.160;2023-10-08T04:35:33;1.40;;;0.60;;
77453;SDS011;66538;53.150;18.160;2023-10-08T04:38:04;1.00;;;0.40;;
77453;SDS011;66538;53.150;18.160;2023-10-08T04:40:35;1.20;;;0.40;;
77453;SDS011;66538;53.150;18.160;2023-10-08T04:43:17;2.60;;;0.70;;
77453;SDS011;66538;53.150;18.160;2023-10-08T04:45:52;2.30;;;0.80;;
77453;SDS011;66538;53.150;18.160;2023-10-08T04:48:18;1.70;;;0.50;;
77453;SDS011;66538;53.150;18.160;2023-10-08T04:50:47;1.30;;;0.60;;
77453;SDS011;66538;53.150;18.160;2023-10-08T04:53:25;4.60;;;0.80;;
77453;SDS011;66538;53.150;18.160;2023-10-08T04:55:59;1.90;;;0.60;;
77453;SDS011;66538;53.150;18.160;2023-10-08T04:58:32;1.40;;;0.50;;
77453;SDS011;66538;53.150;18.160;2023-10-08T05:01:00;2.70;;;0.70;;
77453;SDS011;66538;53.150;18.160;2023-10-08T05:09:04;2.40;;;0.60;;
77453;SDS011;66538;53.150;18.160;2023-10-08T05:11:45;1.90;;;0.70;;
77453;SDS011;66538;53.150;18.160;2023-10-08T05:14:32;2.50;;;0.90;;
77453;SDS011;66538;53.150;18.160;2023-10-08T05:17:06;1.90;;;0.70;;
77453;SDS011;66538;53.150;18.160;2023-10-08T05:19:37;2.70;;;0.80;;
77453;SDS011;66538;53.150;18.160;2023-10-08T05:22:06;6.00;;;1.00;;
77453;SDS011;66538;53.150;18.160;2023-10-08T05:24:52;1.30;;;0.40;;
77453;SDS011;66538;53.150;18.160;2023-10-08T05:27:34;2.50;;;0.80;;
77453;SDS011;66538;53.150;18.160;2023-10-08T05:30:22;2.60;;;0.70;;
77453;SDS011;66538;53.150;18.160;2023-10-08T05:33:05;2.80;;;0.80;;
77453;SDS011;66538;53.150;18.160;2023-10-08T05:35:35;3.00;;;0.80;;
77453;SDS011;66538;53.150;18.160;2023-10-08T05:38:08;2.20;;;0.70;;
77453;SDS011;66538;53.150;18.160;2023-10-08T05:41:02;3.00;;;0.90;;
77453;SDS011;66538;53.150;18.160;2023-10-08T05:43:32;2.10;;;0.70;;
77453;SDS011;66538;53.150;18.160;2023-10-08T05:46:04;2.90;;;0.90;;
77453;SDS011;66538;53.150;18.160;2023-10-08T05:48:53;4.40;;;1.50;;
77453;SDS011;66538;53.150;18.160;2023-10-08T05:51:37;8.30;;;2.80;;
77453;SDS011;66538;53.150;18.160;2023-10-08T05:54:21;4.90;;;1.70;;
77453;SDS011;66538;53.150;18.160;2023-10-08T05:56:54;6.20;;;1.20;;
77453;SDS011;66538;53.150;18.160;2023-10-08T05:59:51;2.40;;;0.90;;
77453;SDS011;66538;53.150;18.160;2023-10-08T06:02:32;4.20;;;1.10;;
77453;SDS011;66538;53.150;18.160;2023-10-08T06:05:03;2.60;;;0.80;;
77453;SDS011;66538;53.150;18.160;2023-10-08T06:07:56;3.10;;;0.90;;
77453;SDS011;66538;53.150;18.160;2023-10-08T06:10:37;3.30;;;1.10;;
77453;SDS011;66538;53.150;18.160;2023-10-08T06:15:39;2.80;;;0.80;;
77453;SDS011;66538;53.150;18.160;2023-10-08T06:18:26;3.30;;;0.90;;
77453;SDS011;66538;53.150;18.160;2023-10-08T06:20:58;3.10;;;0.90;;
77453;SDS011;66538;53.150;18.160;2023-10-08T06:23:35;1.80;;;0.50;;
77453;SDS011;66538;53.150;18.160;2023-10-08T06:26:04;1.40;;;0.50;;
77453;SDS011;66538;53.150;18.160;2023-10-08T06:28:37;2.40;;;0.90;;
77453;SDS011;66538;53.150;18.160;2023-10-08T06:31:05;2.70;;;0.90;;
77453;SDS011;66538;53.150;18.160;2023-10-08T06:33:38;2.40;;;0.80;;
77453;SDS011;66538;53.150;18.160;2023-10-08T06:36:07;2.60;;;0.60;;
77453;SDS011;66538;53.150;18.160;2023-10-08T06:38:42;4.00;;;0.80;;
77453;SDS011;66538;53.150;18.160;2023-10-08T06:43:41;2.20;;;0.60;;
77453;SDS011;66538;53.150;18.160;2023-10-08T06:48:45;1.70;;;0.60;;
77453;SDS011;66538;53.150;18.160;2023-10-08T06:51:12;2.30;;;0.60;;
77453;SDS011;66538;53.150;18.160;2023-10-08T06:53:40;3.00;;;1.00;;
77453;SDS011;66538;53.150;18.160;2023-10-08T06:56:07;1.60;;;0.50;;
77453;SDS011;66538;53.150;18.160;2023-10-08T06:58:39;3.50;;;1.10;;
77453;SDS011;66538;53.150;18.160;2023-10-08T07:01:11;2.50;;;0.50;;
77453;SDS011;66538;53.150;18.160;2023-10-08T07:03:39;2.60;;;0.80;;
77453;SDS011;66538;53.150;18.160;2023-10-08T07:06:06;2.70;;;0.70;;
77453;SDS011;66538;53.150;18.160;2023-10-08T07:08:52;1.60;;;0.50;;
77453;SDS011;66538;53.150;18.160;2023-10-08T07:11:22;1.70;;;0.50;;
77453;SDS011;66538;53.150;18.160;2023-10-08T07:13:49;1.40;;;0.40;;
77453;SDS011;66538;53.150;18.160;2023-10-08T07:16:18;3.40;;;0.70;;
77453;SDS011;66538;53.150;18.160;2023-10-08T07:18:47;2.20;;;0.40;;
77453;SDS011;66538;53.150;18.160;2023-10-08T07:21:21;1.70;;;0.70;;
77453;SDS011;66538;53.150;18.160;2023-10-08T07:23:56;1.10;;;0.40;;
77453;SDS011;66538;53.150;18.160;2023-10-08T07:26:23;2.10;;;0.50;;
77453;SDS011;66538;53.150;18.160;2023-10-08T07:28:52;3.90;;;0.70;;
77453;SDS011;66538;53.150;18.160;2023-10-08T07:31:23;1.90;;;0.60;;
77453;SDS011;66538;53.150;18.160;2023-10-08T07:33:50;1.80;;;0.60;;
77453;SDS011;66538;53.150;18.160;2023-10-08T07:36:23;1.40;;;0.50;;
77453;SDS011;66538;53.150;18.160;2023-10-08T07:38:51;2.10;;;0.50;;
77453;SDS011;66538;53.150;18.160;2023-10-08T07:41:18;1.90;;;0.50;;
77453;SDS011;66538;53.150;18.160;2023-10-08T07:43:47;3.00;;;0.60;;
77453;SDS011;66538;53.150;18.160;2023-10-08T07:46:22;2.80;;;0.40;;
77453;SDS011;66538;53.150;18.160;2023-10-08T07:48:48;2.40;;;0.60;;
77453;SDS011;66538;53.150;18.160;2023-10-08T07:51:16;1.90;;;0.50;;
77453;SDS011;66538;53.150;18.160;2023-10-08T07:53:48;2.70;;;0.60;;
77453;SDS011;66538;53.150;18.160;2023-10-08T07:56:15;2.30;;;0.50;;
77453;SDS011;66538;53.150;18.160;2023-10-08T08:01:10;2.60;;;1.00;;
77453;SDS011;66538;53.150;18.160;2023-10-08T08:03:40;1.30;;;0.60;;
77453;SDS011;66538;53.150;18.160;2023-10-08T08:06:12;1.80;;;0.60;;
77453;SDS011;66538;53.150;18.160;2023-10-08T08:08:39;2.00;;;0.50;;
77453;SDS011;66538;53.150;18.160;2023-10-08T08:11:06;1.80;;;0.50;;
77453;SDS011;66538;53.150;18.160;2023-10-08T08:13:41;2.10;;;0.70;;
77453;SDS011;66538;53.150;18.160;2023-10-08T08:16:11;1.00;;;0.60;;
77453;SDS011;66538;53.150;18.160;2023-10-08T08:18:49;1.50;;;0.50;;
77453;SDS011;66538;53.150;18.160;2023-10-08T08:21:18;2.20;;;0.50;;
77453;SDS011;66538;53.150;18.160;2023-10-08T08:26:31;1.30;;;0.50;;
77453;SDS011;66538;53.150;18.160;2023-10-08T08:29:27;1.80;;;0.50;;
77453;SDS011;66538;53.150;18.160;2023-10-08T08:31:55;1.40;;;0.50;;
77453;SDS011;66538;53.150;18.160;2023-10-08T08:34:23;2.10;;;0.70;;
77453;SDS011;66538;53.150;18.160;2023-10-08T08:36:50;2.70;;;0.80;;
77453;SDS011;66538;53.150;18.160;2023-10-08T08:39:16;3.30;;;0.70;;
77453;SDS011;66538;53.150;18.160;2023-10-08T08:41:59;2.10;;;0.60;;
77453;SDS011;66538;53.150;18.160;2023-10-08T08:46:56;1.10;;;0.30;;
77453;SDS011;66538;53.150;18.160;2023-10-08T08:49:25;1.10;;;0.50;;
77453;SDS011;66538;53.150;18.160;2023-10-08T08:51:55;2.70;;;0.60;;
77453;SDS011;66538;53.150;18.160;2023-10-08T08:56:50;2.10;;;0.50;;
77453;SDS011;66538;53.150;18.160;2023-10-08T08:59:18;1.80;;;0.40;;
77453;SDS011;66538;53.150;18.160;2023-10-08T09:01:46;0.90;;;0.30;;
77453;SDS011;66538;53.150;18.160;2023-10-08T09:04:17;2.30;;;0.50;;
77453;SDS011;66538;53.150;18.160;2023-10-08T09:06:56;3.10;;;0.60;;
77453;SDS011;66538;53.150;18.160;2023-10-08T09:09:43;3.50;;;0.90;;
77453;SDS011;66538;53.150;18.160;2023-10-08T09:12:11;2.50;;;0.50;;
77453;SDS011;66538;53.150;18.160;2023-10-08T09:14:38;2.80;;;1.00;;
77453;SDS011;66538;53.150;18.160;2023-10-08T09:17:04;3.20;;;0.70;;
77453;SDS011;66538;53.150;18.160;2023-10-08T09:19:38;3.00;;;0.60;;
77453;SDS011;66538;53.150;18.160;2023-10-08T09:22:09;2.40;;;0.40;;
77453;SDS011;66538;53.150;18.160;2023-10-08T09:24:40;2.00;;;0.50;;
77453;SDS011;66538;53.150;18.160;2023-10-08T09:27:09;2.40;;;0.60;;
77453;SDS011;66538;53.150;18.160;2023-10-08T09:29:45;2.20;;;0.60;;
77453;SDS011;66538;53.150;18.160;2023-10-08T09:32:15;1.40;;;0.50;;
77453;SDS011;66538;53.150;18.160;2023-10-08T09:34:49;2.10;;;0.60;;
77453;SDS011;66538;53.150;18.160;2023-10-08T09:37:19;0.90;;;0.30;;
77453;SDS011;66538;53.150;18.160;2023-10-08T09:39:48;1.80;;;0.50;;
77453;SDS011;66538;53.150;18.160;2023-10-08T09:42:19;1.70;;;0.50;;
77453;SDS011;66538;53.150;18.160;2023-10-08T09:44:48;2.60;;;0.50;;
77453;SDS011;66538;53.150;18.160;2023-10-08T09:47:17;2.30;;;0.60;;
77453;SDS011;66538;53.150;18.160;2023-10-08T09:52:29;1.00;;;0.40;;
77453;SDS011;66538;53.150;18.160;2023-10-08T09:55:05;2.00;;;0.60;;
77453;SDS011;66538;53.150;18.160;2023-10-08T09:57:36;2.20;;;0.60;;
77453;SDS011;66538;53.150;18.160;2023-10-08T10:00:04;1.40;;;0.60;;
77453;SDS011;66538;53.150;18.160;2023-10-08T10:02:37;3.60;;;0.70;;
77453;SDS011;66538;53.150;18.160;2023-10-08T10:05:04;1.10;;;0.30;;
77453;SDS011;66538;53.150;18.160;2023-10-08T10:07:32;1.90;;;0.50;;
77453;SDS011;66538;53.150;18.160;2023-10-08T10:09:59;2.40;;;0.60;;
77453;SDS011;66538;53.150;18.160;2023-10-08T10:12:26;2.30;;;0.70;;
77453;SDS011;66538;53.150;18.160;2023-10-08T10:14:54;2.50;;;0.70;;
77453;SDS011;66538;53.150;18.160;2023-10-08T10:17:23;1.80;;;0.50;;
77453;SDS011;66538;53.150;18.160;2023-10-08T10:19:55;1.50;;;0.50;;
77453;SDS011;66538;53.150;18.160;2023-10-08T10:25:04;1.80;;;0.50;;
77453;SDS011;66538;53.150;18.160;2023-10-08T10:30:09;1.90;;;0.50;;
77453;SDS011;66538;53.150;18.160;2023-10-08T10:32:36;2.00;;;0.50;;
77453;SDS011;66538;53.150;18.160;2023-10-08T10:35:03;2.20;;;0.50;;
77453;SDS011;66538;53.150;18.160;2023-10-08T10:37:35;2.60;;;0.60;;
77453;SDS011;66538;53.150;18.160;2023-10-08T10:40:08;1.40;;;0.50;;
77453;SDS011;66538;53.150;18.160;2023-10-08T10:42:39;2.80;;;0.60;;
77453;SDS011;66538;53.150;18.160;2023-10-08T10:48:00;1.10;;;0.30;;
77453;SDS011;66538;53.150;18.160;2023-10-08T10:50:40;2.00;;;0.60;;
77453;SDS011;66538;53.150;18.160;2023-10-08T10:53:34;3.90;;;0.70;;
77453;SDS011;66538;53.150;18.160;2023-10-08T10:56:11;5.40;;;0.60;;
77453;SDS011;66538;53.150;18.160;2023-10-08T10:58:47;1.20;;;0.40;;
77453;SDS011;66538;53.150;18.160;2023-10-08T11:01:23;2.70;;;0.70;;
77453;SDS011;66538;53.150;18.160;2023-10-08T11:03:56;1.90;;;0.60;;
77453;SDS011;66538;53.150;18.160;2023-10-08T11:06:26;1.90;;;0.40;;
77453;SDS011;66538;53.150;18.160;2023-10-08T11:08:53;2.40;;;0.70;;
77453;SDS011;66538;53.150;18.160;2023-10-08T11:11:26;2.40;;;0.50;;
77453;SDS011;66538;53.150;18.160;2023-10-08T11:14:00;2.40;;;0.50;;
77453;SDS011;66538;53.150;18.160;2023-10-08T11:16:26;1.10;;;0.40;;
77453;SDS011;66538;53.150;18.160;2023-10-08T11:18:53;2.30;;;0.50;;
77453;SDS011;66538;53.150;18.160;2023-10-08T11:21:24;2.40;;;0.50;;
77453;SDS011;66538;53.150;18.160;2023-10-08T11:23:52;2.00;;;0.50;;
77453;SDS011;66538;53.150;18.160;2023-10-08T11:26:20;1.70;;;0.40;;
77453;SDS011;66538;53.150;18.160;2023-10-08T11:28:58;1.50;;;0.30;;
77453;SDS011;66538;53.150;18.160;2023-10-08T11:31:27;1.30;;;0.30;;
77453;SDS011;66538;53.150;18.160;2023-10-08T11:33:58;1.60;;;0.50;;
77453;SDS011;66538;53.150;18.160;2023-10-08T11:36:27;1.60;;;0.50;;
77453;SDS011;66538;53.150;18.160;2023-10-08T11:38:55;1.50;;;0.50;;
77453;SDS011;66538;53.150;18.160;2023-10-08T11:41:32;1.40;;;0.50;;
77453;SDS011;66538;53.150;18.160;2023-10-08T11:44:16;1.90;;;0.40;;
77453;SDS011;66538;53.150;18.160;2023-10-08T11:46:46;1.30;;;0.30;;
77453;SDS011;66538;53.150;18.160;2023-10-08T11:49:18;1.60;;;0.40;;
77453;SDS011;66538;53.150;18.160;2023-10-08T11:51:45;2.50;;;0.50;;
77453;SDS011;66538;53.150;18.160;2023-10-08T11:54:12;1.50;;;0.50;;
77453;SDS011;66538;53.150;18.160;2023-10-08T11:56:40;3.20;;;0.90;;
77453;SDS011;66538;53.150;18.160;2023-10-08T11:59:07;2.10;;;1.20;;
77453;SDS011;66538;53.150;18.160;2023-10-08T12:01:38;1.90;;;0.40;;
77453;SDS011;66538;53.150;18.160;2023-10-08T12:04:08;1.00;;;0.40;;
77453;SDS011;66538;53.150;18.160;2023-10-08T12:06:41;2.60;;;0.40;;
77453;SDS011;66538;53.150;18.160;2023-10-08T12:09:13;1.10;;;0.30;;
77453;SDS011;66538;53.150;18.160;2023-10-08T12:11:43;0.70;;;0.30;;
77453;SDS011;66538;53.150;18.160;2023-10-08T12:14:10;1.40;;;0.50;;
77453;SDS011;66538;53.150;18.160;2023-10-08T12:16:37;3.10;;;0.50;;
77453;SDS011;66538;53.150;18.160;2023-10-08T12:19:06;1.60;;;0.60;;
77453;SDS011;66538;53.150;18.160;2023-10-08T12:21:42;2.50;;;0.50;;
77453;SDS011;66538;53.150;18.160;2023-10-08T12:24:12;1.30;;;0.30;;
77453;SDS011;66538;53.150;18.160;2023-10-08T12:26:40;2.00;;;0.50;;
77453;SDS011;66538;53.150;18.160;2023-10-08T12:29:12;1.50;;;0.50;;
77453;SDS011;66538;53.150;18.160;2023-10-08T12:31:40;2.20;;;0.60;;
77453;SDS011;66538;53.150;18.160;2023-10-08T12:34:07;2.90;;;0.60;;
77453;SDS011;66538;53.150;18.160;2023-10-08T12:36:38;1.80;;;0.40;;
77453;SDS011;66538;53.150;18.160;2023-10-08T12:39:04;2.20;;;0.60;;
77453;SDS011;66538;53.150;18.160;2023-10-08T12:41:44;1.90;;;0.70;;
77453;SDS011;66538;53.150;18.160;2023-10-08T12:44:11;2.10;;;0.60;;
77453;SDS011;66538;53.150;18.160;2023-10-08T12:46:38;1.30;;;0.40;;
77453;SDS011;66538;53.150;18.160;2023-10-08T12:49:05;1.10;;;0.30;;
77453;SDS011;66538;53.150;18.160;2023-10-08T12:51:33;1.50;;;0.40;;
77453;SDS011;66538;53.150;18.160;2023-10-08T12:54:00;1.40;;;0.50;;
77453;SDS011;66538;53.150;18.160;2023-10-08T12:56:33;1.80;;;0.50;;
77453;SDS011;66538;53.150;18.160;2023-10-08T12:59:11;1.40;;;0.40;;
77453;SDS011;66538;53.150;18.160;2023-10-08T13:01:47;1.70;;;0.50;;
77453;SDS011;66538;53.150;18.160;2023-10-08T13:04:18;1.10;;;0.40;;
77453;SDS011;66538;53.150;18.160;2023-10-08T13:06:53;2.20;;;0.60;;
77453;SDS011;66538;53.150;18.160;2023-10-08T13:09:23;1.80;;;0.60;;
77453;SDS011;66538;53.150;18.160;2023-10-08T13:11:51;1.40;;;0.50;;
77453;SDS011;66538;53.150;18.160;2023-10-08T13:14:18;2.70;;;0.60;;
77453;SDS011;66538;53.150;18.160;2023-10-08T13:16:44;2.30;;;0.60;;
77453;SDS011;66538;53.150;18.160;2023-10-08T13:19:11;2.00;;;0.50;;
77453;SDS011;66538;53.150;18.160;2023-10-08T13:21:38;1.70;;;0.60;;
77453;SDS011;66538;53.150;18.160;2023-10-08T13:24:05;2.60;;;0.60;;
77453;SDS011;66538;53.150;18.160;2023-10-08T13:26:35;1.60;;;0.50;;
77453;SDS011;66538;53.150;18.160;2023-10-08T13:29:04;1.30;;;0.40;;
77453;SDS011;66538;53.150;18.160;2023-10-08T13:31:35;1.50;;;0.50;;
77453;SDS011;66538;53.150;18.160;2023-10-08T13:34:02;1.50;;;0.60;;
77453;SDS011;66538;53.150;18.160;2023-10-08T13:36:35;2.60;;;0.80;;
77453;SDS011;66538;53.150;18.160;2023-10-08T13:39:07;1.70;;;0.70;;
77453;SDS011;66538;53.150;18.160;2023-10-08T13:41:36;2.40;;;0.70;;
77453;SDS011;66538;53.150;18.160;2023-10-08T13:44:08;2.20;;;0.80;;
77453;SDS011;66538;53.150;18.160;2023-10-08T13:46:35;1.90;;;0.60;;
77453;SDS011;66538;53.150;18.160;2023-10-08T13:49:02;2.50;;;0.70;;
77453;SDS011;66538;53.150;18.160;2023-10-08T13:51:32;2.00;;;0.60;;
77453;SDS011;66538;53.150;18.160;2023-10-08T13:54:04;2.30;;;0.70;;
77453;SDS011;66538;53.150;18.160;2023-10-08T13:56:36;1.80;;;0.70;;
77453;SDS011;66538;53.150;18.160;2023-10-08T13:59:06;2.60;;;0.60;;
77453;SDS011;66538;53.150;18.160;2023-10-08T14:01:44;2.40;;;0.70;;
77453;SDS011;66538;53.150;18.160;2023-10-08T14:04:17;2.50;;;0.50;;
77453;SDS011;66538;53.150;18.160;2023-10-08T14:06:48;1.80;;;0.70;;
77453;SDS011;66538;53.150;18.160;2023-10-08T14:09:29;2.20;;;0.70;;
77453;SDS011;66538;53.150;18.160;2023-10-08T14:12:05;3.00;;;0.70;;
77453;SDS011;66538;53.150;18.160;2023-10-08T14:14:38;3.30;;;0.70;;
77453;SDS011;66538;53.150;18.160;2023-10-08T14:17:15;2.00;;;0.60;;
77453;SDS011;66538;53.150;18.160;2023-10-08T14:19:49;2.20;;;0.70;;
77453;SDS011;66538;53.150;18.160;2023-10-08T14:22:25;2.20;;;0.60;;
77453;SDS011;66538;53.150;18.160;2023-10-08T14:24:53;2.70;;;0.90;;
77453;SDS011;66538;53.150;18.160;2023-10-08T14:27:34;2.00;;;0.70;;
77453;SDS011;66538;53.150;18.160;2023-10-08T14:30:09;2.40;;;0.70;;
77453;SDS011;66538;53.150;18.160;2023-10-08T14:32:47;2.20;;;0.80;;
77453;SDS011;66538;53.150;18.160;2023-10-08T14:35:14;2.00;;;0.50;;
77453;SDS011;66538;53.150;18.160;2023-10-08T14:38:00;3.30;;;0.60;;
77453;SDS011;66538;53.150;18.160;2023-10-08T14:40:46;1.70;;;0.40;;
77453;SDS011;66538;53.150;18.160;2023-10-08T14:43:32;1.60;;;0.60;;
77453;SDS011;66538;53.150;18.160;2023-10-08T14:48:31;2.00;;;0.60;;
77453;SDS011;66538;53.150;18.160;2023-10-08T14:51:01;1.60;;;0.50;;
77453;SDS011;66538;53.150;18.160;2023-10-08T14:53:29;2.00;;;0.60;;
77453;SDS011;66538;53.150;18.160;2023-10-08T14:55:57;1.40;;;0.60;;
77453;SDS011;66538;53.150;18.160;2023-10-08T14:58:24;1.60;;;0.50;;
77453;SDS011;66538;53.150;18.160;2023-10-08T15:00:52;2.60;;;0.60;;
77453;SDS011;66538;53.150;18.160;2023-10-08T15:05:47;2.30;;;0.50;;
77453;SDS011;66538;53.150;18.160;2023-10-08T15:08:16;1.30;;;0.50;;
77453;SDS011;66538;53.150;18.160;2023-10-08T15:10:45;1.30;;;0.40;;
77453;SDS011;66538;53.150;18.160;2023-10-08T15:15:43;0.90;;;0.30;;
77453;SDS011;66538;53.150;18.160;2023-10-08T15:18:10;1.60;;;0.40;;
77453;SDS011;66538;53.150;18.160;2023-10-08T15:20:41;2.00;;;0.60;;
77453;SDS011;66538;53.150;18.160;2023-10-08T15:23:09;1.50;;;0.60;;
77453;SDS011;66538;53.150;18.160;2023-10-08T15:25:39;1.80;;;0.60;;
77453;SDS011;66538;53.150;18.160;2023-10-08T15:28:06;2.00;;;0.60;;
77453;SDS011;66538;53.150;18.160;2023-10-08T15:30:34;2.10;;;0.70;;
77453;SDS011;66538;53.150;18.160;2023-10-08T15:33:01;2.20;;;0.60;;
77453;SDS011;66538;53.150;18.160;2023-10-08T15:35:28;2.00;;;0.40;;
77453;SDS011;66538;53.150;18.160;2023-10-08T15:37:55;2.10;;;0.70;;
77453;SDS011;66538;53.150;18.160;2023-10-08T15:40:22;1.50;;;0.50;;
77453;SDS011;66538;53.150;18.160;2023-10-08T15:42:52;1.60;;;0.50;;
77453;SDS011;66538;53.150;18.160;2023-10-08T15:45:21;1.30;;;0.40;;
77453;SDS011;66538;53.150;18.160;2023-10-08T15:47:48;2.00;;;0.60;;